Time;durP1;ratioP1;P1;durP2;ratioP2;P2;SDS_P1;SDS_P2;PMS_P1;PMS_P2;Temp;Humidity;BMP_temperature;BMP_pressure;BME280_temperature;BME280_humidity;BME280_pressure;Samples;Min_cycle;Max_cycle;Signal;HPM_P1;HPM_P2
2022/05/25 00:00:49;;;;;;;1.40;0.60;;;;;;;16.46;52.95;100315.44;4172974;28;20053;-69
2022/05/25 00:02:53;;;;;;;1.55;0.98;;;;;;;16.42;53.59;100312.88;4176841;28;20485;-69
2022/05/25 00:04:56;;;;;;;2.28;0.80;;;;;;;16.45;52.92;100312.84;4163996;28;20057;-69
2022/05/25 00:07:00;;;;;;;1.73;0.90;;;;;;;16.44;52.90;100318.97;4169488;28;20044;-69
2022/05/25 00:09:05;;;;;;;1.75;0.90;;;;;;;16.39;52.90;100319.03;4177579;28;20041;-69
2022/05/25 00:11:08;;;;;;;;;;;;;;;16.21;53.94;100320.13;4182036;28;20075;-69
2022/05/25 00:13:11;;;;;;;1.38;0.88;;;;;;;16.31;53.71;100316.50;4179549;28;20373;-69
2022/05/25 00:15:14;;;;;;;2.28;1.23;;;;;;;16.33;53.40;100319.97;4175319;28;20056;-69
2022/05/25 00:17:17;;;;;;;1.23;0.60;;;;;;;16.30;53.60;100320.00;4171416;28;20048;-69
2022/05/25 00:21:41;;;;;;;1.27;0.75;;;;;;;16.30;53.39;100322.63;4169394;28;20123;-69
2022/05/25 00:23:45;;;;;;;1.20;0.85;;;;;;;16.33;53.01;100319.97;4170391;28;20041;-69
2022/05/25 00:25:48;;;;;;;1.95;0.82;;;;;;;16.33;53.48;100317.34;4175270;28;20116;-69
2022/05/25 00:27:51;;;;;;;2.25;0.82;;;;;;;16.37;53.32;100308.56;4174553;28;20094;-69
2022/05/25 00:29:54;;;;;;;2.17;0.77;;;;;;;16.38;53.34;100325.16;4179532;28;20053;-69
2022/05/25 00:31:57;;;;;;;2.55;0.95;;;;;;;16.39;53.28;100319.88;4168273;28;20560;-69
2022/05/25 00:34:00;;;;;;;1.50;0.85;;;;;;;16.38;53.47;100317.28;4177044;28;20040;-69
2022/05/25 00:36:03;;;;;;;3.45;1.15;;;;;;;16.35;53.65;100318.22;4173645;28;20424;-69
2022/05/25 00:38:08;;;;;;;2.23;0.87;;;;;;;16.35;53.77;100322.56;4182095;28;20049;-69
2022/05/25 00:40:16;;;;;;;1.05;0.70;;;;;;;16.35;53.68;100318.22;4181371;28;20032;-69
2022/05/25 00:42:20;;;;;;;1.02;0.70;;;;;;;16.30;54.13;100319.16;4175461;28;20033;-69
2022/05/25 00:44:24;;;;;;;2.00;0.77;;;;;;;16.28;54.08;100320.91;4178756;28;20124;-69
2022/05/25 00:46:29;;;;;;;2.88;1.10;;;;;;;16.28;53.63;100316.53;4165933;28;20033;-69
2022/05/25 00:48:36;;;;;;;2.72;0.93;;;;;;;16.31;53.47;100311.25;4179386;28;20033;-69
2022/05/25 00:52:59;;;;;;;2.78;0.73;;;;;;;16.31;53.47;100313.00;4179497;28;20041;-69
2022/05/25 00:55:05;;;;;;;0.50;0.50;;;;;;;16.32;54.02;100312.13;4174216;28;20040;-69
2022/05/25 00:57:14;;;;;;;2.95;0.73;;;;;;;16.20;54.60;100319.22;4174311;28;20120;-69
2022/05/25 00:59:19;;;;;;;1.52;0.60;;;;;;;16.16;54.60;100312.28;4178803;28;20049;-69
2022/05/25 01:01:22;;;;;;;1.05;0.68;;;;;;;16.09;54.64;100317.63;4179443;28;20502;-69
2022/05/25 01:03:25;;;;;;;0.85;0.70;;;;;;;16.02;54.99;100319.47;4169495;28;20080;-70
2022/05/25 01:05:32;;;;;;;1.08;0.70;;;;;;;15.98;55.00;100321.22;4165685;28;20039;-70
2022/05/25 01:07:53;;;;;;;1.35;0.60;;;;;;;15.98;55.03;100323.00;4179187;28;20037;-69
2022/05/25 01:10:10;;;;;;;0.88;0.65;;;;;;;15.93;54.56;100335.25;4179812;28;20033;-70
2022/05/25 01:12:32;;;;;;;3.28;0.70;;;;;;;15.88;54.34;100332.69;4178280;28;20060;-69
2022/05/25 01:14:46;;;;;;;1.60;0.70;;;;;;;15.82;54.57;100338.00;4187760;28;20036;-69
2022/05/25 01:17:00;;;;;;;2.00;1.42;;;;;;;15.85;54.77;100327.47;4163333;28;20041;-70
2022/05/25 01:19:18;;;;;;;0.70;0.70;;;;;;;15.86;54.61;100334.47;4172833;28;20383;-70
2022/05/25 01:21:27;;;;;;;1.45;0.90;;;;;;;15.86;54.50;100337.09;4185201;28;20036;-70
2022/05/25 01:23:54;;;;;;;2.10;0.70;;;;;;;15.80;54.84;100334.50;4172982;28;20053;-70
2022/05/25 01:26:30;;;;;;;2.13;0.90;;;;;;;15.80;55.00;100342.38;4164541;28;20045;-70
2022/05/25 01:28:56;;;;;;;5.43;0.80;;;;;;;15.82;54.57;100332.75;4174583;28;20083;-70
2022/05/25 01:31:02;;;;;;;;;;;;;;;15.66;55.53;100335.47;4168262;28;20623;-70
2022/05/25 01:33:16;;;;;;;1.85;0.90;;;;;;;15.81;54.60;100339.75;4157271;28;19921;-70
2022/05/25 01:35:26;;;;;;;2.88;1.00;;;;;;;15.84;55.13;100336.22;4171252;28;20041;-70
2022/05/25 01:37:37;;;;;;;0.93;0.60;;;;;;;15.80;56.06;100339.75;4170118;28;20045;-70
2022/05/25 01:39:45;;;;;;;2.78;1.10;;;;;;;15.79;56.76;100340.66;4170265;28;20110;-70
2022/05/25 01:41:55;;;;;;;1.45;0.77;;;;;;;15.83;56.86;100342.38;4173063;28;20128;-70
2022/05/25 01:44:02;;;;;;;2.00;0.75;;;;;;;15.84;57.00;100347.59;4179990;28;20043;-70
2022/05/25 01:46:11;;;;;;;1.52;0.70;;;;;;;15.85;57.10;100348.44;4172129;28;20036;-70
2022/05/25 01:48:16;;;;;;;1.80;0.75;;;;;;;15.84;57.07;100354.56;4171660;28;20037;-70
2022/05/25 01:50:24;;;;;;;1.65;0.68;;;;;;;15.86;57.39;100351.06;4175176;28;20055;-70
2022/05/25 01:52:31;;;;;;;1.65;0.90;;;;;;;15.88;56.77;100353.66;4164201;28;20038;-70
2022/05/25 01:54:39;;;;;;;1.35;0.70;;;;;;;15.85;57.56;100348.44;4191586;28;20040;-70
2022/05/25 01:56:48;;;;;;;1.17;0.50;;;;;;;15.83;57.56;100356.34;4193675;28;20064;-70
2022/05/25 01:59:11;;;;;;;2.13;0.77;;;;;;;15.79;56.89;100351.13;4174152;28;20059;-70
2022/05/25 02:01:16;;;;;;;1.77;0.98;;;;;;;15.79;56.76;100356.38;4179636;28;20037;-70
2022/05/25 02:05:49;;;;;;;1.23;0.82;;;;;;;15.79;57.51;100365.09;4171771;28;20037;-71
2022/05/25 02:08:06;;;;;;;3.17;1.08;;;;;;;15.87;58.38;100368.53;4174662;28;20044;-71
2022/05/25 02:10:23;;;;;;;0.82;0.60;;;;;;;15.76;58.78;100367.72;4175804;28;20064;-71
2022/05/25 02:12:36;;;;;;;0.80;0.80;;;;;;;15.62;59.06;100367.81;4164226;28;20384;-71
2022/05/25 02:14:52;;;;;;;2.42;0.90;;;;;;;15.58;59.96;100371.38;4170532;28;20132;-71
2022/05/25 02:17:07;;;;;;;1.20;1.00;;;;;;;15.55;60.43;100366.16;4177863;28;20033;-71
2022/05/25 02:19:17;;;;;;;1.15;0.77;;;;;;;15.53;60.21;100366.13;4174865;28;20259;-71
2022/05/25 02:21:29;;;;;;;2.15;0.60;;;;;;;15.54;60.83;100380.13;4181321;28;20049;-71
2022/05/25 02:23:39;;;;;;;2.35;0.93;;;;;;;15.46;60.80;100385.44;4172328;28;20064;-71
2022/05/25 02:25:49;;;;;;;1.02;0.60;;;;;;;15.45;60.11;100381.06;4179264;28;20559;-71
2022/05/25 02:27:57;;;;;;;0.70;0.70;;;;;;;15.47;60.35;100383.69;4172811;28;20041;-71
2022/05/25 02:30:05;;;;;;;3.50;0.93;;;;;;;15.44;59.92;100387.19;4164814;28;20124;-71
2022/05/25 02:32:16;;;;;;;3.55;0.95;;;;;;;15.43;60.15;100387.19;4171872;28;20403;-71
2022/05/25 02:34:21;;;;;;;2.15;0.90;;;;;;;15.44;59.47;100384.56;4175401;28;20132;-71
2022/05/25 02:36:26;;;;;;;3.00;1.00;;;;;;;15.42;59.23;100390.69;4171275;28;20046;-71
2022/05/25 02:38:29;;;;;;;0.80;0.80;;;;;;;15.42;58.98;100393.31;4171751;28;20125;-72
2022/05/25 02:40:34;;;;;;;2.47;0.93;;;;;;;15.45;57.77;100391.56;4164607;28;20049;-71
2022/05/25 02:42:38;;;;;;;2.92;1.00;;;;;;;15.46;58.55;100397.66;4163507;28;20056;-71
2022/05/25 02:44:41;;;;;;;;;;;;;;;15.27;59.26;100397.75;4170031;28;20045;-71
2022/05/25 02:46:44;;;;;;;2.42;0.85;;;;;;;15.35;59.90;100400.34;4187787;28;19928;-71
2022/05/25 02:48:48;;;;;;;2.05;0.82;;;;;;;15.38;59.53;100394.22;4160830;28;20499;-71
2022/05/25 02:50:51;;;;;;;2.75;1.08;;;;;;;15.29;59.77;100410.88;4166324;28;20056;-71
2022/05/25 02:52:55;;;;;;;1.52;0.80;;;;;;;15.21;60.35;100402.19;4170809;28;20037;-71
2022/05/25 02:54:58;;;;;;;1.70;1.02;;;;;;;15.17;60.41;100399.59;4186399;28;20043;-71
2022/05/25 02:57:01;;;;;;;2.05;0.70;;;;;;;15.19;59.79;100410.03;4164857;28;20041;-71
2022/05/25 02:59:05;;;;;;;1.95;1.05;;;;;;;15.18;60.45;100400.44;4178615;28;20037;-71
2022/05/25 03:01:08;;;;;;;5.32;1.35;;;;;;;15.18;59.93;100409.16;4175046;28;20036;-71
2022/05/25 03:03:12;;;;;;;4.10;0.95;;;;;;;15.13;60.42;100410.09;4172902;28;20030;-71
2022/05/25 03:05:17;;;;;;;1.80;0.93;;;;;;;15.13;61.25;100417.94;4165760;28;20495;-71
2022/05/25 03:07:20;;;;;;;4.85;1.20;;;;;;;15.13;61.08;100410.94;4171429;28;20033;-71
2022/05/25 03:09:23;;;;;;;1.00;0.90;;;;;;;15.06;60.52;100421.47;4161959;28;20128;-70
2022/05/25 03:11:26;;;;;;;7.32;1.05;;;;;;;14.99;60.74;100423.22;4171372;28;20038;-71
2022/05/25 03:13:28;;;;;;;4.55;1.10;;;;;;;14.96;61.08;100418.00;4178264;28;20033;-71
2022/05/25 03:15:31;;;;;;;2.38;1.08;;;;;;;14.96;60.97;100424.09;4171247;28;20057;-70
2022/05/25 03:17:34;;;;;;;1.70;1.30;;;;;;;14.90;60.95;100429.38;4177823;28;20486;-71
2022/05/25 03:19:37;;;;;;;2.17;1.00;;;;;;;14.81;61.11;100421.56;4166097;28;20402;-71
2022/05/25 03:21:41;;;;;;;3.47;1.10;;;;;;;14.79;61.91;100424.19;4181168;28;20037;-70
2022/05/25 03:23:44;;;;;;;3.20;1.02;;;;;;;14.75;61.24;100425.06;4183368;28;20485;-70
2022/05/25 03:25:48;;;;;;;1.00;0.88;;;;;;;14.77;62.13;100430.31;4178133;28;20087;-70
2022/05/25 03:27:51;;;;;;;5.30;0.93;;;;;;;14.75;61.31;100425.06;4166800;28;20065;-70
2022/05/25 03:29:54;;;;;;;2.47;1.02;;;;;;;14.76;61.52;100432.06;4184464;28;20041;-70
2022/05/25 03:31:56;;;;;;;3.03;1.10;;;;;;;14.77;61.63;100428.53;4180896;28;20045;-71
2022/05/25 03:33:59;;;;;;;5.25;1.48;;;;;;;14.77;61.88;100432.91;4169145;28;20037;-71
2022/05/25 03:36:04;;;;;;;3.22;1.35;;;;;;;14.69;61.94;100432.06;4181690;28;20068;-71
2022/05/25 03:38:09;;;;;;;1.13;0.80;;;;;;;14.71;61.69;100422.47;4181104;28;20044;-72
2022/05/25 03:40:14;;;;;;;3.10;0.88;;;;;;;14.73;61.72;100431.19;4172527;28;20034;-71
2022/05/25 03:42:19;;;;;;;3.13;1.20;;;;;;;14.70;62.23;100432.06;4175019;28;20447;-71
2022/05/25 03:44:22;;;;;;;1.88;1.05;;;;;;;14.63;61.93;100441.69;4166991;28;20132;-71
2022/05/25 03:46:25;;;;;;;2.67;1.27;;;;;;;14.53;61.90;100439.06;4178430;28;20041;-71
2022/05/25 03:48:29;;;;;;;2.88;1.58;;;;;;;14.46;62.84;100433.84;4170488;28;20553;-71
2022/05/25 03:50:32;;;;;;;1.55;1.00;;;;;;;14.47;62.71;100439.94;4180097;28;20562;-71
2022/05/25 03:52:35;;;;;;;3.10;1.25;;;;;;;14.51;62.80;100436.44;4157821;28;20042;-71
2022/05/25 03:54:39;;;;;;;2.20;1.35;;;;;;;14.53;62.62;100445.19;4171354;28;20033;-71
2022/05/25 03:56:42;;;;;;;2.65;1.35;;;;;;;14.45;62.69;100444.31;4173375;28;20486;-71
2022/05/25 03:58:46;;;;;;;1.73;1.20;;;;;;;14.45;63.15;100447.78;4192790;28;20033;-71
2022/05/25 04:00:49;;;;;;;3.92;1.20;;;;;;;14.42;63.10;100444.31;4159936;28;20037;-71
2022/05/25 04:02:59;;;;;;;1.83;0.93;;;;;;;14.40;64.06;100449.56;4180725;28;20124;-72
2022/05/25 04:05:08;;;;;;;2.70;1.08;;;;;;;14.39;64.25;100442.56;4176357;28;20490;-71
2022/05/25 04:07:11;;;;;;;1.10;1.00;;;;;;;14.41;64.29;100453.03;4178564;28;20557;-71
2022/05/25 04:09:14;;;;;;;2.30;1.23;;;;;;;14.45;64.54;100454.78;4164358;28;20460;-71
2022/05/25 04:11:19;;;;;;;1.15;0.98;;;;;;;14.45;64.16;100454.78;4179766;28;20468;-71
2022/05/25 04:13:22;;;;;;;3.55;1.30;;;;;;;14.38;64.65;100455.66;4172893;28;20572;-70
2022/05/25 04:15:27;;;;;;;2.70;1.40;;;;;;;14.34;65.39;100459.13;4173377;28;20033;-70
2022/05/25 04:17:33;;;;;;;1.63;1.00;;;;;;;14.35;65.48;100466.13;4172406;28;20065;-71
2022/05/25 04:19:38;;;;;;;1.45;1.10;;;;;;;14.35;65.24;100469.59;4171364;28;20144;-71
2022/05/25 04:21:42;;;;;;;6.20;1.20;;;;;;;14.35;65.06;100468.75;4173941;28;20072;-71
2022/05/25 04:23:45;;;;;;;3.93;1.43;;;;;;;14.36;64.60;100467.88;4177712;28;20499;-70
2022/05/25 04:25:50;;;;;;;1.20;1.10;;;;;;;14.32;65.40;100470.50;4173605;28;20040;-70
2022/05/25 04:27:56;;;;;;;2.33;1.02;;;;;;;14.28;65.40;100466.13;4186890;28;20574;-70
2022/05/25 04:29:59;;;;;;;2.22;1.08;;;;;;;14.32;65.74;100467.88;4176615;28;20091;-70
2022/05/25 04:32:02;;;;;;;1.38;1.00;;;;;;;14.27;65.48;100472.22;4193848;28;20048;-70
2022/05/25 04:34:06;;;;;;;2.38;1.27;;;;;;;14.29;65.50;100473.13;4170873;28;20065;-70
2022/05/25 04:36:09;;;;;;;1.88;1.05;;;;;;;14.29;65.84;100465.28;4176019;28;20498;-70
2022/05/25 04:38:14;;;;;;;3.22;1.25;;;;;;;14.40;65.12;100469.63;4179511;28;20037;-70
2022/05/25 04:40:19;;;;;;;1.52;1.05;;;;;;;14.48;65.38;100473.06;4177297;28;20510;-71
2022/05/25 04:42:22;;;;;;;1.90;1.23;;;;;;;14.45;65.57;100466.09;4178497;28;20044;-71
2022/05/25 04:44:26;;;;;;;2.22;1.17;;;;;;;14.49;65.32;100473.06;4163864;28;20410;-71
2022/05/25 04:46:29;;;;;;;2.15;1.20;;;;;;;14.51;65.60;100478.28;4174467;28;20052;-71
2022/05/25 04:48:32;;;;;;;5.82;1.42;;;;;;;14.55;65.09;100477.41;4164150;28;20041;-71
2022/05/25 04:50:40;;;;;;;2.05;1.08;;;;;;;14.60;64.85;100486.16;4176710;28;20124;-71
2022/05/25 04:52:43;;;;;;;3.72;1.50;;;;;;;14.63;65.58;100486.16;4179426;28;20051;-71
2022/05/25 04:54:45;;;;;;;4.97;1.55;;;;;;;14.70;64.63;100494.00;4170095;28;20487;-71
2022/05/25 04:59:09;;;;;;;2.70;1.30;;;;;;;14.78;64.34;100494.88;4165239;28;20132;-71
2022/05/25 05:01:16;;;;;;;6.03;1.60;;;;;;;14.82;63.66;100507.03;4165616;28;20052;-71
2022/05/25 05:03:21;;;;;;;3.63;1.20;;;;;;;14.83;64.72;100506.19;4166904;28;20538;-70
2022/05/25 05:05:24;;;;;;;3.33;1.50;;;;;;;14.91;64.40;100516.63;4172358;28;20410;-71
2022/05/25 05:07:31;;;;;;;1.67;1.10;;;;;;;14.99;64.17;100518.34;4164208;28;20136;-71
2022/05/25 05:09:34;;;;;;;3.20;1.50;;;;;;;15.04;63.63;100517.47;4165437;28;20571;-71
2022/05/25 05:11:37;;;;;;;4.90;1.33;;;;;;;15.03;63.67;100526.22;4165825;28;20069;-71
2022/05/25 05:13:41;;;;;;;3.13;1.40;;;;;;;15.08;63.93;100527.06;4181716;28;20144;-71
2022/05/25 05:15:48;;;;;;;3.45;1.13;;;;;;;15.12;63.75;100529.66;4169455;28;20053;-71
2022/05/25 05:17:53;;;;;;;1.80;1.20;;;;;;;15.18;63.76;100531.38;4165099;28;20076;-71
2022/05/25 05:20:17;;;;;;;2.35;1.40;;;;;;;15.13;62.51;100530.53;4171357;28;20029;-71
2022/05/25 05:22:20;;;;;;;3.95;1.27;;;;;;;15.18;62.33;100536.63;4180268;28;20051;-71
2022/05/25 05:24:23;;;;;;;10.00;1.60;;;;;;;15.18;62.91;100541.84;4165153;28;20223;-71
2022/05/25 05:26:26;;;;;;;4.18;1.33;;;;;;;15.29;62.51;100545.31;4165150;28;20095;-71
2022/05/25 05:28:31;;;;;;;7.10;1.70;;;;;;;15.39;62.74;100545.25;4170557;28;20066;-71
2022/05/25 05:30:38;;;;;;;5.00;1.45;;;;;;;15.44;61.93;100546.13;4180124;28;20453;-71
2022/05/25 05:32:41;;;;;;;4.28;1.50;;;;;;;15.41;61.82;100548.78;4165029;28;20048;-71
2022/05/25 05:34:45;;;;;;;2.70;1.27;;;;;;;15.43;62.14;100547.00;4163853;28;20061;-71
2022/05/25 05:36:52;;;;;;;3.38;1.55;;;;;;;15.45;61.11;100542.59;4172710;28;20037;-71
2022/05/25 05:39:00;;;;;;;4.43;1.70;;;;;;;15.53;61.49;100557.41;4178981;28;20037;-71
2022/05/25 05:41:03;;;;;;;3.13;1.50;;;;;;;15.42;60.64;100553.09;4173215;28;20125;-71
2022/05/25 05:43:07;;;;;;;5.88;1.80;;;;;;;15.46;59.73;100554.84;4164778;28;20518;-71
2022/05/25 05:45:13;;;;;;;;;;;;;;;15.41;59.54;100554.00;4164024;28;20034;-71
2022/05/25 05:47:19;;;;;;;3.08;1.23;;;;;;;15.49;59.88;100560.06;4164864;28;19944;-70
2022/05/25 05:49:23;;;;;;;3.28;1.52;;;;;;;15.63;59.19;100558.25;4164513;28;20051;-70
2022/05/25 05:51:27;;;;;;;5.75;1.40;;;;;;;15.71;59.13;100566.06;4163573;28;20048;-70
2022/05/25 05:53:31;;;;;;;3.47;1.30;;;;;;;15.76;58.87;100573.94;4191781;28;20039;-70
2022/05/25 05:55:35;;;;;;;3.57;1.87;;;;;;;15.85;58.88;100568.66;4174346;28;20041;-70
2022/05/25 05:57:39;;;;;;;5.43;1.90;;;;;;;15.92;58.17;100573.00;4163222;28;20387;-70
2022/05/25 05:59:41;;;;;;;5.05;1.70;;;;;;;15.97;57.71;100576.44;4179986;28;20067;-71
2022/05/25 06:01:45;;;;;;;4.00;1.65;;;;;;;16.03;57.80;100575.53;4177356;28;20040;-70
2022/05/25 06:03:48;;;;;;;1.63;1.38;;;;;;;16.09;57.92;100580.75;4172723;28;20120;-70
2022/05/25 06:05:51;;;;;;;7.85;1.80;;;;;;;16.10;57.30;100585.09;4163280;28;20040;-70
2022/05/25 06:07:55;;;;;;;6.20;1.70;;;;;;;16.18;57.47;100582.44;4175227;28;20066;-70
2022/05/25 06:09:58;;;;;;;5.35;1.85;;;;;;;16.22;57.13;100578.91;4177639;28;20064;-70
2022/05/25 06:12:01;;;;;;;6.18;1.83;;;;;;;16.31;57.65;100585.84;4180852;28;20131;-70
2022/05/25 06:14:04;;;;;;;8.07;1.88;;;;;;;16.35;56.88;100587.56;4180944;28;20040;-70
2022/05/25 06:20:49;;;;;;;4.10;1.48;;;;;;;16.50;57.22;100583.94;4180842;28;20037;-70
2022/05/25 06:22:52;;;;;;;7.47;1.80;;;;;;;16.52;56.75;100587.44;4179547;28;20379;-69
2022/05/25 06:24:56;;;;;;;5.78;1.52;;;;;;;16.49;56.18;100585.69;4179541;28;20136;-70
2022/05/25 06:26:59;;;;;;;4.72;1.83;;;;;;;16.51;55.99;100588.31;4180798;28;20060;-69
2022/05/25 06:29:03;;;;;;;2.75;1.35;;;;;;;16.58;56.13;100596.09;4179358;28;20473;-69
2022/05/25 06:31:06;;;;;;;7.10;1.95;;;;;;;16.61;55.54;100597.84;4180537;28;20041;-69
2022/05/25 06:33:08;;;;;;;8.50;2.53;;;;;;;16.85;53.89;100602.03;4166087;28;20120;-69
2022/05/25 06:35:11;;;;;;;6.22;2.08;;;;;;;16.85;53.90;100602.03;4162897;28;20168;-69
2022/05/25 06:37:16;;;;;;;6.90;2.42;;;;;;;16.84;54.72;100605.53;4167295;28;20441;-69
2022/05/25 06:39:18;;;;;;;5.07;1.38;;;;;;;16.87;55.08;100608.16;4180343;28;20037;-69
2022/05/25 06:41:23;;;;;;;6.55;1.73;;;;;;;16.94;54.61;100614.22;4177846;28;20047;-69
2022/05/25 06:43:26;;;;;;;6.47;1.73;;;;;;;16.99;54.29;100608.91;4172690;28;20036;-69
2022/05/25 06:45:30;;;;;;;5.72;1.50;;;;;;;17.07;53.82;100614.97;4173059;28;20071;-69
2022/05/25 06:47:34;;;;;;;5.65;1.95;;;;;;;17.04;53.90;100618.50;4172051;28;20041;-69
2022/05/25 06:49:36;;;;;;;3.25;1.42;;;;;;;17.05;53.97;100617.59;4179223;28;20088;-69
2022/05/25 06:51:39;;;;;;;3.22;1.30;;;;;;;17.09;54.36;100616.69;4180541;28;20036;-69
2022/05/25 06:53:42;;;;;;;8.73;1.85;;;;;;;17.05;54.28;100617.59;4176576;28;20033;-69
2022/05/25 06:55:47;;;;;;;11.43;1.42;;;;;;;17.09;53.85;100627.19;4178069;28;20045;-68
2022/05/25 06:57:52;;;;;;;6.35;1.30;;;;;;;17.12;53.38;100626.28;4183747;28;20037;-69
2022/05/25 06:59:55;;;;;;;5.28;1.80;;;;;;;17.17;53.44;100635.00;4183914;28;20486;-69
2022/05/25 07:01:58;;;;;;;5.65;1.30;;;;;;;17.23;52.88;100623.53;4182728;28;20135;-69
2022/05/25 07:04:01;;;;;;;5.80;1.20;;;;;;;17.25;51.97;100627.91;4170286;28;20040;-69
2022/05/25 07:06:05;;;;;;;3.45;1.05;;;;;;;17.28;50.32;100632.25;4167383;28;20365;-69
2022/05/25 07:08:08;;;;;;;1.55;0.85;;;;;;;17.36;50.45;100635.69;4190370;28;20052;-69
2022/05/25 07:10:11;;;;;;;1.98;0.90;;;;;;;17.41;49.83;100636.50;4181914;28;20041;-69
2022/05/25 07:12:14;;;;;;;3.88;1.02;;;;;;;17.46;50.37;100633.81;4181388;28;20029;-69
2022/05/25 07:14:18;;;;;;;2.90;1.08;;;;;;;17.49;50.40;100640.78;4190482;28;20035;-69
2022/05/25 07:16:22;;;;;;;3.17;1.02;;;;;;;17.47;49.46;100639.94;4183684;28;20058;-69
2022/05/25 07:18:26;;;;;;;5.72;1.38;;;;;;;17.52;48.99;100646.00;4183311;28;20073;-69
2022/05/25 07:20:29;;;;;;;3.38;1.05;;;;;;;17.57;50.24;100645.06;4183611;28;20045;-69
2022/05/25 07:22:32;;;;;;;3.95;0.98;;;;;;;17.60;50.17;100644.19;4183578;28;20041;-69
2022/05/25 07:24:34;;;;;;;0.80;0.80;;;;;;;17.65;48.94;100644.97;4182216;28;20119;-69
2022/05/25 07:26:37;;;;;;;5.03;1.00;;;;;;;17.72;47.58;100641.38;4181394;28;20498;-69
2022/05/25 07:28:40;;;;;;;4.00;1.02;;;;;;;17.71;47.25;100642.28;4174802;28;20133;-70
2022/05/25 07:30:45;;;;;;;1.95;0.80;;;;;;;17.76;47.26;100645.72;4182328;28;20061;-69
2022/05/25 07:32:48;;;;;;;1.80;0.75;;;;;;;17.84;46.76;100642.13;4182195;28;20449;-69
2022/05/25 07:34:57;;;;;;;2.58;1.20;;;;;;;17.95;47.38;100641.13;4182181;28;20065;-69
2022/05/25 07:37:10;;;;;;;2.97;0.80;;;;;;;18.05;47.55;100647.13;4182125;28;20068;-69
2022/05/25 07:39:14;;;;;;;2.38;1.00;;;;;;;18.12;48.22;100647.91;4165132;28;20060;-69
2022/05/25 07:41:18;;;;;;;;;;;;;;;18.14;48.72;100648.78;4182795;28;20090;-69
2022/05/25 07:43:24;;;;;;;4.75;1.17;;;;;;;18.21;49.17;100649.53;4174883;28;19920;-69
2022/05/25 07:45:28;;;;;;;1.77;1.10;;;;;;;18.22;48.46;100643.38;4183268;28;20044;-69
2022/05/25 15:52:07;;;;;;;1.73;0.60;;;;;;;23.09;30.64;100624.53;4244238;27;20410;-76
2022/05/25 15:54:10;;;;;;;2.47;0.50;;;;;;;23.35;31.41;100620.97;4208816;28;20522;-77
2022/05/25 15:56:13;;;;;;;2.53;0.57;;;;;;;23.74;31.26;100622.19;4228078;28;20490;-77
2022/05/25 15:58:16;;;;;;;2.85;0.73;;;;;;;24.15;31.79;100619.72;4228194;28;20493;-76
2022/05/25 16:00:20;;;;;;;1.88;0.68;;;;;;;24.33;30.79;100626.97;4227018;28;20036;-76
2022/05/25 16:02:23;;;;;;;1.35;0.63;;;;;;;24.38;30.28;100622.31;4226949;28;20074;-77
2022/05/25 16:04:31;;;;;;;2.00;0.75;;;;;;;24.58;29.35;100623.31;4228209;28;20586;-77
2022/05/25 16:06:35;;;;;;;3.30;0.47;;;;;;;24.40;29.25;100625.81;4210094;28;20044;-76
2022/05/25 16:11:01;;;;;;;0.85;0.60;;;;;;;24.15;29.49;100622.38;4228203;28;20036;-76
2022/05/25 16:13:04;;;;;;;2.33;0.63;;;;;;;24.20;30.00;100625.75;4226399;28;20036;-77
2022/05/25 16:15:08;;;;;;;5.13;1.70;;;;;;;24.12;30.55;100628.69;4226833;28;20139;-75
2022/05/25 16:17:12;;;;;;;1.90;0.60;;;;;;;23.90;30.01;100631.31;4226647;28;20047;-76
2022/05/25 16:19:16;;;;;;;1.23;0.60;;;;;;;23.87;30.21;100634.97;4227936;28;20128;-76
2022/05/25 16:21:19;;;;;;;1.30;0.73;;;;;;;23.94;30.18;100635.59;4226711;28;20046;-76
2022/05/25 16:23:22;;;;;;;0.52;0.50;;;;;;;23.70;29.78;100632.06;4227665;28;20044;-75
2022/05/25 16:25:27;;;;;;;0.80;0.68;;;;;;;23.18;29.92;100634.84;4227823;28;20520;-76
2022/05/25 16:27:31;;;;;;;2.60;0.60;;;;;;;22.94;30.87;100637.41;4226456;28;20453;-76
2022/05/25 16:29:36;;;;;;;0.98;0.50;;;;;;;22.87;31.20;100642.94;4227760;28;20043;-76
2022/05/25 16:31:39;;;;;;;;;;;;;;;22.62;31.12;100644.66;4227959;28;20055;-76
2022/05/25 16:33:42;;;;;;;0.60;0.60;;;;;;;22.69;30.73;100647.09;4209568;28;19927;-76
2022/05/25 16:35:45;;;;;;;0.88;0.43;;;;;;;22.77;30.89;100642.41;4226471;28;20086;-76
2022/05/25 16:37:48;;;;;;;0.75;0.50;;;;;;;22.80;30.80;100640.50;4227685;28;20055;-76
2022/05/25 16:39:50;;;;;;;3.05;0.65;;;;;;;22.84;31.43;100641.28;4226369;28;20139;-76
2022/05/25 16:41:55;;;;;;;0.65;0.52;;;;;;;22.81;31.45;100644.03;4225931;28;20117;-76
2022/05/25 16:43:58;;;;;;;2.05;0.60;;;;;;;22.80;31.62;100639.66;4227585;28;20048;-76
2022/05/25 16:46:01;;;;;;;2.17;0.77;;;;;;;22.70;31.50;100644.38;4209433;28;20127;-76
2022/05/25 16:48:05;;;;;;;0.93;0.50;;;;;;;22.61;31.49;100645.56;4226126;28;20048;-76
2022/05/25 16:50:10;;;;;;;1.98;0.73;;;;;;;22.62;31.33;100649.94;4227458;28;20047;-75
2022/05/25 16:52:12;;;;;;;1.38;0.70;;;;;;;22.52;31.67;100651.16;4219438;28;20046;-76
2022/05/25 16:54:16;;;;;;;1.95;0.85;;;;;;;22.46;32.17;100640.78;4198124;28;20052;-76
2022/05/25 16:56:21;;;;;;;1.38;0.82;;;;;;;22.34;32.06;100652.63;4216157;28;20502;-75
2022/05/25 16:58:25;;;;;;;0.52;0.40;;;;;;;22.24;32.29;100651.13;4215009;28;20262;-76
2022/05/25 17:00:29;;;;;;;0.82;0.60;;;;;;;22.20;32.51;100657.47;4215999;28;20130;-76
2022/05/25 17:02:32;;;;;;;2.33;0.73;;;;;;;22.20;33.10;100660.97;4197602;28;20040;-76
2022/05/25 17:04:34;;;;;;;2.60;0.70;;;;;;;22.26;33.84;100660.75;4215923;28;20210;-76
2022/05/25 17:06:37;;;;;;;0.75;0.50;;;;;;;22.26;33.88;100654.59;4216088;28;20036;-76
2022/05/25 17:08:42;;;;;;;2.17;0.60;;;;;;;22.33;34.50;100656.19;4197974;28;20040;-76
2022/05/25 17:10:45;;;;;;;1.88;0.80;;;;;;;22.36;34.43;100656.09;4214427;28;20043;-76
2022/05/25 17:12:48;;;;;;;1.50;0.63;;;;;;;22.34;33.73;100668.53;4215519;28;20067;-75
2022/05/25 17:14:53;;;;;;;1.98;0.60;;;;;;;22.20;32.42;100670.69;4215781;28;20119;-76
2022/05/25 17:16:56;;;;;;;1.02;0.50;;;;;;;22.15;32.72;100670.81;4215737;28;20036;-76
2022/05/25 17:21:22;;;;;;;1.13;0.57;;;;;;;21.95;32.80;100676.72;4215672;28;20044;-76
2022/05/25 17:23:25;;;;;;;1.30;0.70;;;;;;;22.01;32.70;100675.69;4214117;28;20537;-77
2022/05/25 17:25:28;;;;;;;2.03;0.60;;;;;;;21.99;32.45;100682.78;4215538;28;20067;-76
2022/05/25 17:27:31;;;;;;;1.55;0.73;;;;;;;21.94;32.59;100680.28;4215617;28;20075;-76
2022/05/25 17:29:34;;;;;;;1.63;0.40;;;;;;;21.91;32.41;100678.59;4215509;28;20128;-75
2022/05/25 17:31:39;;;;;;;0.98;0.60;;;;;;;21.81;32.54;100681.56;4214008;28;20148;-76
2022/05/25 17:33:42;;;;;;;1.00;0.40;;;;;;;21.76;32.92;100689.63;4215339;28;20032;-76
2022/05/25 17:42:46;;;;;;;3.30;1.10;;;;;;;21.84;33.32;100692.91;4213540;28;20046;-76
2022/05/25 17:44:49;;;;;;;2.15;0.80;;;;;;;21.83;33.26;100696.50;4215328;28;20033;-76
2022/05/25 17:46:56;;;;;;;1.10;0.60;;;;;;;21.90;32.91;100698.06;4215310;28;20036;-76
2022/05/25 17:48:59;;;;;;;2.55;0.88;;;;;;;21.89;32.57;100695.41;4215229;28;20040;-76
2022/05/25 17:51:02;;;;;;;3.33;1.20;;;;;;;21.77;32.56;100699.28;4215088;28;20040;-76
2022/05/25 17:53:15;;;;;;;2.83;0.52;;;;;;;21.69;32.77;100696.88;4214871;28;20054;-77
2022/05/25 17:55:18;;;;;;;3.67;0.90;;;;;;;21.70;33.17;100703.00;4215119;28;20043;-76
2022/05/25 17:57:21;;;;;;;1.40;0.80;;;;;;;21.67;33.25;100718.97;4213855;28;20035;-76
2022/05/25 17:59:27;;;;;;;2.30;0.57;;;;;;;21.64;33.06;100713.78;4197089;28;20055;-76
2022/05/25 18:01:30;;;;;;;1.45;0.60;;;;;;;21.55;33.03;100720.19;4215125;28;20115;-75
2022/05/25 18:03:34;;;;;;;2.90;0.70;;;;;;;21.43;32.89;100721.34;4213868;28;20498;-76
2022/05/25 18:05:38;;;;;;;2.05;0.60;;;;;;;21.34;32.87;100729.53;4214951;28;20085;-76
2022/05/25 18:07:41;;;;;;;0.45;0.40;;;;;;;21.26;33.08;100730.63;4215171;28;20064;-75
2022/05/25 18:09:50;;;;;;;1.77;0.68;;;;;;;21.25;33.28;100733.31;4214739;28;20036;-76
2022/05/25 18:11:58;;;;;;;2.92;0.75;;;;;;;21.20;33.21;100728.13;4214241;28;20040;-75
2022/05/25 18:14:02;;;;;;;3.20;0.60;;;;;;;21.16;33.23;100729.13;4213370;28;20418;-75